sensor_id;sensor_type;location;lat;lon;timestamp;temperature;humidity
19755;DHT22;10036;47.812;9.274;2022-10-16T00:02:18;12.40;99.90
19755;DHT22;10036;47.812;9.274;2022-10-16T00:04:45;12.40;99.90
19755;DHT22;10036;47.812;9.274;2022-10-16T00:07:12;12.40;99.90
19755;DHT22;10036;47.812;9.274;2022-10-16T00:09:39;12.40;99.90
19755;DHT22;10036;47.812;9.274;2022-10-16T00:12:06;12.40;99.90
19755;DHT22;10036;47.812;9.274;2022-10-16T00:14:33;12.40;99.90
19755;DHT22;10036;47.812;9.274;2022-10-16T00:17:00;12.40;99.90
19755;DHT22;10036;47.812;9.274;2022-10-16T00:19:28;12.40;99.90
19755;DHT22;10036;47.812;9.274;2022-10-16T00:21:55;12.40;99.90
19755;DHT22;10036;47.812;9.274;2022-10-16T00:24:22;12.50;99.90
19755;DHT22;10036;47.812;9.274;2022-10-16T00:26:49;12.50;99.90
19755;DHT22;10036;47.812;9.274;2022-10-16T00:29:16;12.60;99.90
19755;DHT22;10036;47.812;9.274;2022-10-16T00:31:43;12.60;99.90
19755;DHT22;10036;47.812;9.274;2022-10-16T00:34:10;12.70;99.90
19755;DHT22;10036;47.812;9.274;2022-10-16T00:36:38;12.60;99.90
19755;DHT22;10036;47.812;9.274;2022-10-16T00:39:05;12.50;99.90
19755;DHT22;10036;47.812;9.274;2022-10-16T00:41:32;12.60;99.90
19755;DHT22;10036;47.812;9.274;2022-10-16T00:44:01;12.60;99.90
19755;DHT22;10036;47.812;9.274;2022-10-16T00:46:31;12.70;99.90
19755;DHT22;10036;47.812;9.274;2022-10-16T00:49:02;12.70;99.90
19755;DHT22;10036;47.812;9.274;2022-10-16T00:51:31;12.70;99.90
19755;DHT22;10036;47.812;9.274;2022-10-16T00:54:02;12.70;99.90
19755;DHT22;10036;47.812;9.274;2022-10-16T00:56:31;12.60;99.90
19755;DHT22;10036;47.812;9.274;2022-10-16T00:58:59;12.60;99.90
19755;DHT22;10036;47.812;9.274;2022-10-16T01:01:28;12.50;99.90
19755;DHT22;10036;47.812;9.274;2022-10-16T01:03:55;12.50;99.90
19755;DHT22;10036;47.812;9.274;2022-10-16T01:06:24;12.50;99.90
19755;DHT22;10036;47.812;9.274;2022-10-16T01:09:04;12.50;99.90
19755;DHT22;10036;47.812;9.274;2022-10-16T01:11:35;12.50;99.90
19755;DHT22;10036;47.812;9.274;2022-10-16T01:14:11;12.60;99.90
19755;DHT22;10036;47.812;9.274;2022-10-16T01:16:44;12.60;99.90
19755;DHT22;10036;47.812;9.274;2022-10-16T01:19:17;12.60;99.90
19755;DHT22;10036;47.812;9.274;2022-10-16T01:21:47;12.60;99.90
19755;DHT22;10036;47.812;9.274;2022-10-16T01:24:27;12.60;99.90
19755;DHT22;10036;47.812;9.274;2022-10-16T01:27:11;12.60;99.90
19755;DHT22;10036;47.812;9.274;2022-10-16T01:29:42;12.60;99.90
19755;DHT22;10036;47.812;9.274;2022-10-16T01:32:16;12.60;99.90
19755;DHT22;10036;47.812;9.274;2022-10-16T01:34:48;12.60;99.90
19755;DHT22;10036;47.812;9.274;2022-10-16T01:37:25;12.60;99.90
19755;DHT22;10036;47.812;9.274;2022-10-16T01:39:55;12.60;99.90
19755;DHT22;10036;47.812;9.274;2022-10-16T01:42:30;12.50;99.90
19755;DHT22;10036;47.812;9.274;2022-10-16T01:44:58;12.60;99.90
19755;DHT22;10036;47.812;9.274;2022-10-16T01:47:27;12.70;99.90
19755;DHT22;10036;47.812;9.274;2022-10-16T01:49:58;12.70;99.90
19755;DHT22;10036;47.812;9.274;2022-10-16T01:52:27;12.60;99.90
19755;DHT22;10036;47.812;9.274;2022-10-16T01:54:56;12.60;99.90
19755;DHT22;10036;47.812;9.274;2022-10-16T01:57:26;12.60;99.90
19755;DHT22;10036;47.812;9.274;2022-10-16T01:59:56;12.50;99.90
19755;DHT22;10036;47.812;9.274;2022-10-16T02:02:27;12.50;99.90
19755;DHT22;10036;47.812;9.274;2022-10-16T02:04:58;12.50;99.90
19755;DHT22;10036;47.812;9.274;2022-10-16T02:07:25;12.50;99.90
19755;DHT22;10036;47.812;9.274;2022-10-16T02:09:52;12.60;99.90
19755;DHT22;10036;47.812;9.274;2022-10-16T02:12:24;12.50;99.90
19755;DHT22;10036;47.812;9.274;2022-10-16T02:14:54;12.50;99.90
19755;DHT22;10036;47.812;9.274;2022-10-16T02:17:21;12.50;99.90
19755;DHT22;10036;47.812;9.274;2022-10-16T02:19:50;12.50;99.90
19755;DHT22;10036;47.812;9.274;2022-10-16T02:22:22;12.50;99.90
19755;DHT22;10036;47.812;9.274;2022-10-16T02:24:53;12.50;99.90
19755;DHT22;10036;47.812;9.274;2022-10-16T02:27:25;12.60;99.90
19755;DHT22;10036;47.812;9.274;2022-10-16T02:29:58;12.50;99.90
19755;DHT22;10036;47.812;9.274;2022-10-16T02:32:30;12.60;99.90
19755;DHT22;10036;47.812;9.274;2022-10-16T02:34:58;12.60;99.90
19755;DHT22;10036;47.812;9.274;2022-10-16T02:37:26;12.60;99.90
19755;DHT22;10036;47.812;9.274;2022-10-16T02:39:54;12.70;99.90
19755;DHT22;10036;47.812;9.274;2022-10-16T02:42:27;12.70;99.90
19755;DHT22;10036;47.812;9.274;2022-10-16T02:44:56;12.70;99.90
19755;DHT22;10036;47.812;9.274;2022-10-16T02:47:23;12.70;99.90
19755;DHT22;10036;47.812;9.274;2022-10-16T02:49:50;12.70;99.90
19755;DHT22;10036;47.812;9.274;2022-10-16T02:52:17;12.70;99.90
19755;DHT22;10036;47.812;9.274;2022-10-16T02:54:43;12.60;99.90
19755;DHT22;10036;47.812;9.274;2022-10-16T02:57:10;12.50;99.90
19755;DHT22;10036;47.812;9.274;2022-10-16T02:59:37;12.50;99.90
19755;DHT22;10036;47.812;9.274;2022-10-16T03:02:05;12.50;99.90
19755;DHT22;10036;47.812;9.274;2022-10-16T03:04:32;12.50;99.90
19755;DHT22;10036;47.812;9.274;2022-10-16T03:06:59;12.60;99.90
19755;DHT22;10036;47.812;9.274;2022-10-16T03:09:26;12.60;99.90
19755;DHT22;10036;47.812;9.274;2022-10-16T03:11:52;12.60;99.90
19755;DHT22;10036;47.812;9.274;2022-10-16T03:14:19;12.60;99.90
19755;DHT22;10036;47.812;9.274;2022-10-16T03:16:46;12.60;99.90
19755;DHT22;10036;47.812;9.274;2022-10-16T03:19:16;12.50;99.90
19755;DHT22;10036;47.812;9.274;2022-10-16T03:21:43;12.60;99.90
19755;DHT22;10036;47.812;9.274;2022-10-16T03:24:10;12.60;99.90
19755;DHT22;10036;47.812;9.274;2022-10-16T03:26:37;12.60;99.90
19755;DHT22;10036;47.812;9.274;2022-10-16T03:29:04;12.70;99.90
19755;DHT22;10036;47.812;9.274;2022-10-16T03:31:31;12.60;99.90
19755;DHT22;10036;47.812;9.274;2022-10-16T03:33:57;12.60;99.90
19755;DHT22;10036;47.812;9.274;2022-10-16T03:36:26;12.60;99.90
19755;DHT22;10036;47.812;9.274;2022-10-16T03:38:52;12.50;99.90
19755;DHT22;10036;47.812;9.274;2022-10-16T03:41:19;12.50;99.90
19755;DHT22;10036;47.812;9.274;2022-10-16T03:43:46;12.50;99.90
19755;DHT22;10036;47.812;9.274;2022-10-16T03:46:13;12.50;99.90
19755;DHT22;10036;47.812;9.274;2022-10-16T03:48:40;12.50;99.90
19755;DHT22;10036;47.812;9.274;2022-10-16T03:51:07;12.50;99.90
19755;DHT22;10036;47.812;9.274;2022-10-16T03:53:35;12.40;99.90
19755;DHT22;10036;47.812;9.274;2022-10-16T03:56:02;12.50;99.90
19755;DHT22;10036;47.812;9.274;2022-10-16T03:58:29;12.40;99.90
19755;DHT22;10036;47.812;9.274;2022-10-16T04:00:56;12.50;99.90
19755;DHT22;10036;47.812;9.274;2022-10-16T04:03:23;12.50;99.90
19755;DHT22;10036;47.812;9.274;2022-10-16T04:05:49;12.40;99.90
19755;DHT22;10036;47.812;9.274;2022-10-16T04:08:16;12.50;99.90
19755;DHT22;10036;47.812;9.274;2022-10-16T04:10:45;12.40;99.90
19755;DHT22;10036;47.812;9.274;2022-10-16T04:13:12;12.50;99.90
19755;DHT22;10036;47.812;9.274;2022-10-16T04:15:39;12.50;99.90
19755;DHT22;10036;47.812;9.274;2022-10-16T04:18:06;12.40;99.90
19755;DHT22;10036;47.812;9.274;2022-10-16T04:20:33;12.40;99.90
19755;DHT22;10036;47.812;9.274;2022-10-16T04:23:01;12.30;99.90
19755;DHT22;10036;47.812;9.274;2022-10-16T04:25:27;12.30;99.90
19755;DHT22;10036;47.812;9.274;2022-10-16T04:27:56;12.20;99.90
19755;DHT22;10036;47.812;9.274;2022-10-16T04:30:23;12.20;99.90
19755;DHT22;10036;47.812;9.274;2022-10-16T04:32:50;12.30;99.90
19755;DHT22;10036;47.812;9.274;2022-10-16T04:35:17;12.30;99.90
19755;DHT22;10036;47.812;9.274;2022-10-16T04:37:45;12.40;99.90
19755;DHT22;10036;47.812;9.274;2022-10-16T04:40:12;12.30;99.90
19755;DHT22;10036;47.812;9.274;2022-10-16T04:42:39;12.30;99.90
19755;DHT22;10036;47.812;9.274;2022-10-16T04:45:08;12.40;99.90
19755;DHT22;10036;47.812;9.274;2022-10-16T04:47:35;12.40;99.90
19755;DHT22;10036;47.812;9.274;2022-10-16T04:50:02;12.40;99.90
19755;DHT22;10036;47.812;9.274;2022-10-16T04:52:29;12.40;99.90
19755;DHT22;10036;47.812;9.274;2022-10-16T04:54:57;12.40;99.90
19755;DHT22;10036;47.812;9.274;2022-10-16T04:57:26;12.40;99.90
19755;DHT22;10036;47.812;9.274;2022-10-16T04:59:53;12.40;99.90
19755;DHT22;10036;47.812;9.274;2022-10-16T05:02:22;12.30;99.90
19755;DHT22;10036;47.812;9.274;2022-10-16T05:04:48;12.30;99.90
19755;DHT22;10036;47.812;9.274;2022-10-16T05:07:15;12.30;99.90
19755;DHT22;10036;47.812;9.274;2022-10-16T05:09:42;12.30;99.90
19755;DHT22;10036;47.812;9.274;2022-10-16T05:12:09;12.30;99.90
19755;DHT22;10036;47.812;9.274;2022-10-16T05:14:36;12.30;99.90
19755;DHT22;10036;47.812;9.274;2022-10-16T05:17:03;12.40;99.90
19755;DHT22;10036;47.812;9.274;2022-10-16T05:19:31;12.30;99.90
19755;DHT22;10036;47.812;9.274;2022-10-16T05:21:58;12.30;99.90
19755;DHT22;10036;47.812;9.274;2022-10-16T05:24:26;12.30;99.90
19755;DHT22;10036;47.812;9.274;2022-10-16T05:26:53;12.30;99.90
19755;DHT22;10036;47.812;9.274;2022-10-16T05:29:20;12.40;99.90
19755;DHT22;10036;47.812;9.274;2022-10-16T05:31:49;12.40;99.90
19755;DHT22;10036;47.812;9.274;2022-10-16T05:34:16;12.40;99.90
19755;DHT22;10036;47.812;9.274;2022-10-16T05:36:44;12.40;99.90
19755;DHT22;10036;47.812;9.274;2022-10-16T05:39:11;12.40;99.90
19755;DHT22;10036;47.812;9.274;2022-10-16T05:41:38;12.40;99.90
19755;DHT22;10036;47.812;9.274;2022-10-16T05:44:05;12.40;99.90
19755;DHT22;10036;47.812;9.274;2022-10-16T05:46:33;12.40;99.90
19755;DHT22;10036;47.812;9.274;2022-10-16T05:48:59;12.30;99.90
19755;DHT22;10036;47.812;9.274;2022-10-16T05:51:26;12.30;99.90
19755;DHT22;10036;47.812;9.274;2022-10-16T05:53:54;12.40;99.90
19755;DHT22;10036;47.812;9.274;2022-10-16T05:56:21;12.30;99.90
19755;DHT22;10036;47.812;9.274;2022-10-16T05:58:48;12.30;99.90
19755;DHT22;10036;47.812;9.274;2022-10-16T06:01:18;12.30;99.90
19755;DHT22;10036;47.812;9.274;2022-10-16T06:03:46;12.30;99.90
19755;DHT22;10036;47.812;9.274;2022-10-16T06:06:14;12.30;99.90
19755;DHT22;10036;47.812;9.274;2022-10-16T06:08:43;12.20;99.90
19755;DHT22;10036;47.812;9.274;2022-10-16T06:11:13;12.20;99.90
19755;DHT22;10036;47.812;9.274;2022-10-16T06:13:40;12.20;99.90
19755;DHT22;10036;47.812;9.274;2022-10-16T06:16:08;12.30;99.90
19755;DHT22;10036;47.812;9.274;2022-10-16T06:18:35;12.30;99.90
19755;DHT22;10036;47.812;9.274;2022-10-16T06:21:07;12.40;99.90
19755;DHT22;10036;47.812;9.274;2022-10-16T06:23:34;12.40;99.90
19755;DHT22;10036;47.812;9.274;2022-10-16T06:26:05;12.50;99.90
19755;DHT22;10036;47.812;9.274;2022-10-16T06:28:33;12.50;99.90
19755;DHT22;10036;47.812;9.274;2022-10-16T06:31:00;12.50;99.90
19755;DHT22;10036;47.812;9.274;2022-10-16T06:33:27;12.50;99.90
19755;DHT22;10036;47.812;9.274;2022-10-16T06:36:00;12.50;99.90
19755;DHT22;10036;47.812;9.274;2022-10-16T06:38:27;12.60;99.90
19755;DHT22;10036;47.812;9.274;2022-10-16T06:40:54;12.60;99.90
19755;DHT22;10036;47.812;9.274;2022-10-16T06:43:21;12.70;99.90
19755;DHT22;10036;47.812;9.274;2022-10-16T06:45:52;12.70;99.90
19755;DHT22;10036;47.812;9.274;2022-10-16T06:48:19;12.80;99.90
19755;DHT22;10036;47.812;9.274;2022-10-16T06:50:55;12.80;99.90
19755;DHT22;10036;47.812;9.274;2022-10-16T06:53:23;12.80;99.90
19755;DHT22;10036;47.812;9.274;2022-10-16T06:55:50;12.80;99.90
19755;DHT22;10036;47.812;9.274;2022-10-16T06:58:17;12.80;99.90
19755;DHT22;10036;47.812;9.274;2022-10-16T07:00:43;12.80;99.90
19755;DHT22;10036;47.812;9.274;2022-10-16T07:03:12;12.80;99.90
19755;DHT22;10036;47.812;9.274;2022-10-16T07:05:39;12.80;99.90
19755;DHT22;10036;47.812;9.274;2022-10-16T07:08:06;12.80;99.90
19755;DHT22;10036;47.812;9.274;2022-10-16T07:10:34;12.80;99.90
19755;DHT22;10036;47.812;9.274;2022-10-16T07:13:01;12.80;99.90
19755;DHT22;10036;47.812;9.274;2022-10-16T07:15:28;12.80;99.90
19755;DHT22;10036;47.812;9.274;2022-10-16T07:17:54;12.80;99.90
19755;DHT22;10036;47.812;9.274;2022-10-16T07:20:23;12.80;99.90
19755;DHT22;10036;47.812;9.274;2022-10-16T07:22:49;12.80;99.90
19755;DHT22;10036;47.812;9.274;2022-10-16T07:25:16;12.90;99.90
19755;DHT22;10036;47.812;9.274;2022-10-16T07:27:43;12.80;99.90
19755;DHT22;10036;47.812;9.274;2022-10-16T07:30:10;12.90;99.90
19755;DHT22;10036;47.812;9.274;2022-10-16T07:32:37;12.90;99.90
19755;DHT22;10036;47.812;9.274;2022-10-16T07:35:05;13.00;99.90
19755;DHT22;10036;47.812;9.274;2022-10-16T07:37:33;13.00;99.90
19755;DHT22;10036;47.812;9.274;2022-10-16T07:40:00;13.10;99.90
19755;DHT22;10036;47.812;9.274;2022-10-16T07:42:27;13.20;99.90
19755;DHT22;10036;47.812;9.274;2022-10-16T07:44:54;13.30;99.90
19755;DHT22;10036;47.812;9.274;2022-10-16T07:47:21;13.50;99.90
19755;DHT22;10036;47.812;9.274;2022-10-16T07:49:47;13.70;99.90
19755;DHT22;10036;47.812;9.274;2022-10-16T07:52:14;13.80;99.90
19755;DHT22;10036;47.812;9.274;2022-10-16T07:54:43;14.00;99.90
19755;DHT22;10036;47.812;9.274;2022-10-16T07:57:09;14.10;99.90
19755;DHT22;10036;47.812;9.274;2022-10-16T07:59:37;14.10;99.90
19755;DHT22;10036;47.812;9.274;2022-10-16T08:02:03;14.20;99.90
19755;DHT22;10036;47.812;9.274;2022-10-16T08:04:30;14.20;99.90
19755;DHT22;10036;47.812;9.274;2022-10-16T08:06:57;14.30;99.90
19755;DHT22;10036;47.812;9.274;2022-10-16T08:09:24;14.40;99.90
19755;DHT22;10036;47.812;9.274;2022-10-16T08:11:52;14.50;99.90
19755;DHT22;10036;47.812;9.274;2022-10-16T08:14:19;14.70;99.90
19755;DHT22;10036;47.812;9.274;2022-10-16T08:16:46;14.90;99.90
19755;DHT22;10036;47.812;9.274;2022-10-16T08:19:13;15.00;99.90
19755;DHT22;10036;47.812;9.274;2022-10-16T08:21:41;15.20;99.90
19755;DHT22;10036;47.812;9.274;2022-10-16T08:24:07;15.20;99.90
19755;DHT22;10036;47.812;9.274;2022-10-16T08:26:34;15.30;99.90
19755;DHT22;10036;47.812;9.274;2022-10-16T08:29:02;15.30;99.90
19755;DHT22;10036;47.812;9.274;2022-10-16T08:31:29;15.60;99.90
19755;DHT22;10036;47.812;9.274;2022-10-16T08:33:56;15.70;99.90
19755;DHT22;10036;47.812;9.274;2022-10-16T08:36:23;15.80;99.90
19755;DHT22;10036;47.812;9.274;2022-10-16T08:38:50;15.90;99.90
19755;DHT22;10036;47.812;9.274;2022-10-16T08:44:42;16.20;99.90
19755;DHT22;10036;47.812;9.274;2022-10-16T08:47:17;16.30;99.90
19755;DHT22;10036;47.812;9.274;2022-10-16T08:49:56;16.40;99.90
19755;DHT22;10036;47.812;9.274;2022-10-16T08:52:28;16.50;99.90
19755;DHT22;10036;47.812;9.274;2022-10-16T08:54:56;16.60;99.90
19755;DHT22;10036;47.812;9.274;2022-10-16T08:57:25;16.80;99.90
19755;DHT22;10036;47.812;9.274;2022-10-16T08:59:54;16.90;99.90
19755;DHT22;10036;47.812;9.274;2022-10-16T09:02:31;16.90;99.90
19755;DHT22;10036;47.812;9.274;2022-10-16T09:05:08;16.80;99.90
19755;DHT22;10036;47.812;9.274;2022-10-16T09:07:41;16.90;99.90
19755;DHT22;10036;47.812;9.274;2022-10-16T09:10:19;16.90;99.90
19755;DHT22;10036;47.812;9.274;2022-10-16T09:12:56;17.00;99.90
19755;DHT22;10036;47.812;9.274;2022-10-16T09:15:30;17.10;99.90
19755;DHT22;10036;47.812;9.274;2022-10-16T09:18:02;17.10;99.90
19755;DHT22;10036;47.812;9.274;2022-10-16T09:20:38;17.20;99.90
19755;DHT22;10036;47.812;9.274;2022-10-16T09:23:14;17.30;99.90
19755;DHT22;10036;47.812;9.274;2022-10-16T09:25:44;17.40;99.90
19755;DHT22;10036;47.812;9.274;2022-10-16T09:28:13;17.50;99.90
19755;DHT22;10036;47.812;9.274;2022-10-16T09:30:42;17.60;99.90
19755;DHT22;10036;47.812;9.274;2022-10-16T09:33:10;17.70;99.90
19755;DHT22;10036;47.812;9.274;2022-10-16T09:35:39;17.80;99.90
19755;DHT22;10036;47.812;9.274;2022-10-16T09:38:07;17.80;99.90
19755;DHT22;10036;47.812;9.274;2022-10-16T09:40:36;17.90;99.90
19755;DHT22;10036;47.812;9.274;2022-10-16T09:43:17;17.80;99.90
19755;DHT22;10036;47.812;9.274;2022-10-16T09:45:55;17.90;99.90
19755;DHT22;10036;47.812;9.274;2022-10-16T09:48:22;17.90;99.90
19755;DHT22;10036;47.812;9.274;2022-10-16T09:50:57;18.00;99.90
19755;DHT22;10036;47.812;9.274;2022-10-16T09:53:26;18.00;99.90
19755;DHT22;10036;47.812;9.274;2022-10-16T09:56:04;18.10;99.90
19755;DHT22;10036;47.812;9.274;2022-10-16T09:58:32;18.20;99.90
19755;DHT22;10036;47.812;9.274;2022-10-16T10:01:01;18.30;99.90
19755;DHT22;10036;47.812;9.274;2022-10-16T10:03:35;18.30;99.90
19755;DHT22;10036;47.812;9.274;2022-10-16T10:06:15;18.40;99.90
19755;DHT22;10036;47.812;9.274;2022-10-16T10:08:56;18.40;99.90
19755;DHT22;10036;47.812;9.274;2022-10-16T10:11:44;18.60;99.90
19755;DHT22;10036;47.812;9.274;2022-10-16T10:14:23;18.60;99.90
19755;DHT22;10036;47.812;9.274;2022-10-16T10:17:11;18.70;99.90
19755;DHT22;10036;47.812;9.274;2022-10-16T10:19:40;18.80;99.90
19755;DHT22;10036;47.812;9.274;2022-10-16T10:22:26;18.90;99.90
19755;DHT22;10036;47.812;9.274;2022-10-16T10:25:04;19.00;99.90
19755;DHT22;10036;47.812;9.274;2022-10-16T10:27:41;19.10;99.90
19755;DHT22;10036;47.812;9.274;2022-10-16T10:30:17;19.30;99.90
19755;DHT22;10036;47.812;9.274;2022-10-16T10:32:52;19.40;99.90
19755;DHT22;10036;47.812;9.274;2022-10-16T10:35:25;19.50;99.90
19755;DHT22;10036;47.812;9.274;2022-10-16T10:38:03;19.60;99.90
19755;DHT22;10036;47.812;9.274;2022-10-16T10:40:43;19.70;99.90
19755;DHT22;10036;47.812;9.274;2022-10-16T10:43:21;19.70;99.90
19755;DHT22;10036;47.812;9.274;2022-10-16T10:45:56;19.90;99.90
19755;DHT22;10036;47.812;9.274;2022-10-16T10:48:47;19.90;99.90
19755;DHT22;10036;47.812;9.274;2022-10-16T10:51:21;20.00;99.90
19755;DHT22;10036;47.812;9.274;2022-10-16T10:53:55;20.10;99.90
19755;DHT22;10036;47.812;9.274;2022-10-16T10:56:42;20.10;99.90
19755;DHT22;10036;47.812;9.274;2022-10-16T10:59:32;20.00;99.90
19755;DHT22;10036;47.812;9.274;2022-10-16T11:02:10;20.10;99.90
19755;DHT22;10036;47.812;9.274;2022-10-16T11:04:54;20.20;99.90
19755;DHT22;10036;47.812;9.274;2022-10-16T11:07:26;20.30;99.90
19755;DHT22;10036;47.812;9.274;2022-10-16T11:09:57;20.30;99.90
19755;DHT22;10036;47.812;9.274;2022-10-16T11:12:27;20.40;99.90
19755;DHT22;10036;47.812;9.274;2022-10-16T11:14:58;20.40;99.90
19755;DHT22;10036;47.812;9.274;2022-10-16T11:17:32;20.60;99.90
19755;DHT22;10036;47.812;9.274;2022-10-16T11:20:10;20.70;99.90
19755;DHT22;10036;47.812;9.274;2022-10-16T11:22:39;20.70;99.90
19755;DHT22;10036;47.812;9.274;2022-10-16T11:25:13;20.70;99.90
19755;DHT22;10036;47.812;9.274;2022-10-16T11:27:44;20.80;99.90
19755;DHT22;10036;47.812;9.274;2022-10-16T11:30:16;20.80;99.90
19755;DHT22;10036;47.812;9.274;2022-10-16T11:32:56;20.90;99.90
19755;DHT22;10036;47.812;9.274;2022-10-16T11:35:36;20.90;99.90
19755;DHT22;10036;47.812;9.274;2022-10-16T11:38:13;20.90;99.90
19755;DHT22;10036;47.812;9.274;2022-10-16T11:40:43;21.00;99.90
19755;DHT22;10036;47.812;9.274;2022-10-16T11:43:15;21.00;99.90
19755;DHT22;10036;47.812;9.274;2022-10-16T11:45:46;21.00;99.90
19755;DHT22;10036;47.812;9.274;2022-10-16T11:48:21;21.00;99.90
19755;DHT22;10036;47.812;9.274;2022-10-16T11:50:53;21.10;99.90
19755;DHT22;10036;47.812;9.274;2022-10-16T11:53:26;21.20;99.90
19755;DHT22;10036;47.812;9.274;2022-10-16T11:55:56;21.20;99.90
19755;DHT22;10036;47.812;9.274;2022-10-16T11:58:28;21.20;99.90
19755;DHT22;10036;47.812;9.274;2022-10-16T12:01:02;21.30;99.90
19755;DHT22;10036;47.812;9.274;2022-10-16T12:03:38;21.30;99.90
19755;DHT22;10036;47.812;9.274;2022-10-16T12:06:16;21.40;99.90
19755;DHT22;10036;47.812;9.274;2022-10-16T12:08:46;21.50;99.90
19755;DHT22;10036;47.812;9.274;2022-10-16T12:11:24;21.50;99.90
19755;DHT22;10036;47.812;9.274;2022-10-16T12:14:18;21.60;99.90
19755;DHT22;10036;47.812;9.274;2022-10-16T12:16:53;21.70;99.90
19755;DHT22;10036;47.812;9.274;2022-10-16T12:19:21;21.80;99.90
19755;DHT22;10036;47.812;9.274;2022-10-16T12:21:51;21.80;99.90
19755;DHT22;10036;47.812;9.274;2022-10-16T12:24:30;21.70;99.90
19755;DHT22;10036;47.812;9.274;2022-10-16T12:26:58;21.70;99.90
19755;DHT22;10036;47.812;9.274;2022-10-16T12:29:34;21.60;99.90
19755;DHT22;10036;47.812;9.274;2022-10-16T12:32:03;21.60;99.90
19755;DHT22;10036;47.812;9.274;2022-10-16T12:34:38;21.70;99.90
19755;DHT22;10036;47.812;9.274;2022-10-16T12:37:19;21.70;99.90
19755;DHT22;10036;47.812;9.274;2022-10-16T12:39:47;21.70;99.90
19755;DHT22;10036;47.812;9.274;2022-10-16T12:42:30;21.80;99.90
19755;DHT22;10036;47.812;9.274;2022-10-16T12:44:59;21.80;99.90
19755;DHT22;10036;47.812;9.274;2022-10-16T12:47:36;21.80;99.90
19755;DHT22;10036;47.812;9.274;2022-10-16T12:50:21;21.90;99.90
19755;DHT22;10036;47.812;9.274;2022-10-16T12:52:51;21.80;99.90
19755;DHT22;10036;47.812;9.274;2022-10-16T12:55:19;21.90;99.90
19755;DHT22;10036;47.812;9.274;2022-10-16T13:00:54;21.80;99.90
19755;DHT22;10036;47.812;9.274;2022-10-16T13:03:40;21.80;99.90
19755;DHT22;10036;47.812;9.274;2022-10-16T13:06:19;21.80;99.90
19755;DHT22;10036;47.812;9.274;2022-10-16T13:09:26;22.00;99.90
19755;DHT22;10036;47.812;9.274;2022-10-16T13:12:14;22.00;99.90
19755;DHT22;10036;47.812;9.274;2022-10-16T13:15:03;22.10;99.90
19755;DHT22;10036;47.812;9.274;2022-10-16T13:17:39;22.10;99.90
19755;DHT22;10036;47.812;9.274;2022-10-16T13:20:16;22.20;99.90
19755;DHT22;10036;47.812;9.274;2022-10-16T13:22:50;22.20;99.90
19755;DHT22;10036;47.812;9.274;2022-10-16T13:25:30;22.20;99.90
19755;DHT22;10036;47.812;9.274;2022-10-16T13:28:00;22.30;99.90
19755;DHT22;10036;47.812;9.274;2022-10-16T13:30:30;22.30;99.90
19755;DHT22;10036;47.812;9.274;2022-10-16T13:33:01;22.30;99.90
19755;DHT22;10036;47.812;9.274;2022-10-16T13:35:30;22.30;99.90
19755;DHT22;10036;47.812;9.274;2022-10-16T13:38:05;22.30;99.90
19755;DHT22;10036;47.812;9.274;2022-10-16T13:40:33;22.30;99.90
19755;DHT22;10036;47.812;9.274;2022-10-16T13:43:00;22.40;99.90
19755;DHT22;10036;47.812;9.274;2022-10-16T13:45:28;22.40;99.90
19755;DHT22;10036;47.812;9.274;2022-10-16T13:48:02;22.50;99.90
19755;DHT22;10036;47.812;9.274;2022-10-16T13:50:29;22.50;99.90
19755;DHT22;10036;47.812;9.274;2022-10-16T13:53:04;22.50;99.90
19755;DHT22;10036;47.812;9.274;2022-10-16T13:55:31;22.50;99.90
19755;DHT22;10036;47.812;9.274;2022-10-16T13:58:08;22.40;99.90
19755;DHT22;10036;47.812;9.274;2022-10-16T14:00:35;22.40;99.90
19755;DHT22;10036;47.812;9.274;2022-10-16T14:03:04;22.50;99.90
19755;DHT22;10036;47.812;9.274;2022-10-16T14:05:32;22.60;99.90
19755;DHT22;10036;47.812;9.274;2022-10-16T14:08:00;22.70;99.90
19755;DHT22;10036;47.812;9.274;2022-10-16T14:10:32;22.80;99.90
19755;DHT22;10036;47.812;9.274;2022-10-16T14:13:01;22.90;99.90
19755;DHT22;10036;47.812;9.274;2022-10-16T14:15:32;23.00;99.90
19755;DHT22;10036;47.812;9.274;2022-10-16T14:18:01;23.10;99.90
19755;DHT22;10036;47.812;9.274;2022-10-16T14:20:30;23.10;99.90
19755;DHT22;10036;47.812;9.274;2022-10-16T14:23:00;23.10;99.90
19755;DHT22;10036;47.812;9.274;2022-10-16T14:25:29;23.20;99.90
19755;DHT22;10036;47.812;9.274;2022-10-16T14:27:58;23.30;99.90
19755;DHT22;10036;47.812;9.274;2022-10-16T14:30:26;23.30;99.90
19755;DHT22;10036;47.812;9.274;2022-10-16T14:32:57;23.30;99.90
19755;DHT22;10036;47.812;9.274;2022-10-16T14:35:30;23.20;99.90
19755;DHT22;10036;47.812;9.274;2022-10-16T14:37:58;23.20;99.90
19755;DHT22;10036;47.812;9.274;2022-10-16T14:40:28;23.10;99.90
19755;DHT22;10036;47.812;9.274;2022-10-16T14:42:56;23.10;99.90
19755;DHT22;10036;47.812;9.274;2022-10-16T14:45:26;23.10;99.90
19755;DHT22;10036;47.812;9.274;2022-10-16T14:47:56;23.10;99.90
19755;DHT22;10036;47.812;9.274;2022-10-16T14:50:24;23.10;99.90
19755;DHT22;10036;47.812;9.274;2022-10-16T14:52:51;23.20;99.90
19755;DHT22;10036;47.812;9.274;2022-10-16T14:55:18;23.20;99.90
19755;DHT22;10036;47.812;9.274;2022-10-16T14:57:45;23.20;99.90
19755;DHT22;10036;47.812;9.274;2022-10-16T15:00:16;23.20;99.90
19755;DHT22;10036;47.812;9.274;2022-10-16T15:02:44;23.10;99.90
19755;DHT22;10036;47.812;9.274;2022-10-16T15:05:15;23.00;99.90
19755;DHT22;10036;47.812;9.274;2022-10-16T15:07:43;22.80;99.90
19755;DHT22;10036;47.812;9.274;2022-10-16T15:10:10;22.70;99.90
19755;DHT22;10036;47.812;9.274;2022-10-16T15:12:37;22.60;99.90
19755;DHT22;10036;47.812;9.274;2022-10-16T15:15:23;22.70;99.90
19755;DHT22;10036;47.812;9.274;2022-10-16T15:17:52;22.60;99.90
19755;DHT22;10036;47.812;9.274;2022-10-16T15:20:23;22.60;99.90
19755;DHT22;10036;47.812;9.274;2022-10-16T15:22:50;22.30;99.90
19755;DHT22;10036;47.812;9.274;2022-10-16T15:25:30;22.10;99.90
19755;DHT22;10036;47.812;9.274;2022-10-16T15:27:57;22.10;99.90
19755;DHT22;10036;47.812;9.274;2022-10-16T15:30:25;21.90;99.90
19755;DHT22;10036;47.812;9.274;2022-10-16T15:32:52;21.90;99.90
19755;DHT22;10036;47.812;9.274;2022-10-16T15:35:19;21.80;99.90
19755;DHT22;10036;47.812;9.274;2022-10-16T15:37:48;21.70;99.90
19755;DHT22;10036;47.812;9.274;2022-10-16T15:40:15;21.60;99.90
19755;DHT22;10036;47.812;9.274;2022-10-16T15:42:42;21.50;99.90
19755;DHT22;10036;47.812;9.274;2022-10-16T15:45:10;21.40;99.90
19755;DHT22;10036;47.812;9.274;2022-10-16T15:47:37;21.30;99.90
19755;DHT22;10036;47.812;9.274;2022-10-16T15:50:05;21.30;99.90
19755;DHT22;10036;47.812;9.274;2022-10-16T15:52:33;21.10;99.90
19755;DHT22;10036;47.812;9.274;2022-10-16T15:55:01;20.90;99.90
19755;DHT22;10036;47.812;9.274;2022-10-16T15:57:28;20.80;99.90